Time;durP1;ratioP1;P1;durP2;ratioP2;P2;SDS_P1;SDS_P2;PMS_P1;PMS_P2;Temp;Humidity;BMP_temperature;BMP_pressure;BME280_temperature;BME280_humidity;BME280_pressure;Samples;Min_cycle;Max_cycle;Signal;HPM_P1;HPM_P2
2022/01/03 00:00:10;;;;;;;28.97;26.60;;;;;;;10.99;88.18;100932.25;10345147;28;20213;-67
2022/01/03 00:05:13;;;;;;;38.13;34.63;;;;;;;10.91;87.92;100911.41;10335690;28;20212;-67
2022/01/03 00:10:18;;;;;;;42.27;38.60;;;;;;;10.97;88.08;100924.34;10344314;28;20205;-67
2022/01/03 00:15:20;;;;;;;61.37;55.47;;;;;;;10.96;87.90;100913.75;10347522;28;20229;-67
2022/01/03 00:20:23;;;;;;;87.27;68.53;;;;;;;10.97;88.03;100920.81;10340431;28;20309;-67
2022/01/03 00:25:27;;;;;;;718.27;144.70;;;;;;;10.84;87.76;100902.13;10344644;28;20216;-67
2022/01/03 00:30:28;;;;;;;1999.90;637.27;;;;;;;10.92;88.02;100923.81;10345432;28;20311;-68
2022/01/03 00:35:32;;;;;;;1999.90;999.90;;;;;;;10.91;87.27;100912.25;10340218;28;20245;-67
2022/01/03 00:40:36;;;;;;;1999.90;999.90;;;;;;;10.86;87.41;100921.56;10342964;28;20236;-66
2022/01/03 00:45:38;;;;;;;1999.90;999.90;;;;;;;10.90;86.80;100926.56;10344372;28;20197;-67
2022/01/03 00:50:40;;;;;;;1999.90;999.90;;;;;;;10.89;87.26;100940.06;10341954;28;20727;-67
2022/01/03 00:56:00;;;;;;;1999.90;999.90;;;;;;;10.90;87.24;100936.41;10344540;28;20231;-67
2022/01/03 01:01:03;;;;;;;1999.90;999.90;;;;;;;10.89;86.55;100940.91;10343751;28;20225;-67
2022/01/03 01:06:07;;;;;;;1999.90;999.90;;;;;;;10.83;87.26;100938.69;10342272;28;20236;-67
2022/01/03 01:11:10;;;;;;;1999.90;999.90;;;;;;;10.86;86.50;100945.63;10343314;28;20731;-67
2022/01/03 01:16:14;;;;;;;902.97;791.67;;;;;;;10.87;86.91;100963.38;10339265;28;20249;-67
2022/01/03 01:21:17;;;;;;;715.53;652.77;;;;;;;10.84;87.35;100950.22;10337127;28;20217;-67
2022/01/03 01:31:47;;;;;;;285.40;259.03;;;;;;;10.79;87.06;100947.03;10343029;28;20324;-67
2022/01/03 01:36:52;;;;;;;142.33;127.70;;;;;;;10.80;87.59;100951.41;10339211;28;20658;-67
2022/01/03 01:41:57;;;;;;;119.70;99.73;;;;;;;10.80;87.05;100951.41;10342515;28;20205;-67
2022/01/03 01:47:05;;;;;;;111.27;90.73;;;;;;;10.81;87.42;100958.44;10345062;28;20240;-67
2022/01/03 01:52:15;;;;;;;99.57;68.10;;;;;;;10.42;87.33;100905.06;10345210;28;20209;-67
2022/01/03 01:57:21;;;;;;;1999.90;913.57;;;;;;;10.76;87.45;100960.63;10341733;28;20318;-68
2022/01/03 02:02:31;;;;;;;1999.90;999.90;;;;;;;10.80;87.68;100973.63;10344196;28;20233;-67
2022/01/03 02:08:02;;;;;;;1999.90;999.90;;;;;;;10.79;87.87;100966.56;10341694;28;20794;-68
2022/01/03 02:13:06;;;;;;;1999.90;999.90;;;;;;;10.74;87.84;100952.69;10342082;28;20228;-68
2022/01/03 02:18:08;;;;;;;1999.90;999.90;;;;;;;10.75;87.35;100970.41;10339024;28;20206;-67
2022/01/03 02:23:12;;;;;;;1999.90;999.90;;;;;;;10.61;87.96;100950.03;10339806;28;20610;-67
2022/01/03 02:28:13;;;;;;;1999.90;999.90;;;;;;;10.75;87.49;100966.91;10332427;28;20217;-67
2022/01/03 02:33:15;;;;;;;1999.90;999.90;;;;;;;10.75;87.43;100961.56;10333185;28;20251;-67
2022/01/03 02:38:18;;;;;;;1999.90;999.90;;;;;;;10.77;87.53;100970.31;10334144;28;20216;-67
2022/01/03 02:43:20;;;;;;;60.67;43.40;;;;;;;10.76;87.08;100961.47;10335317;28;20213;-67
2022/01/03 02:48:22;;;;;;;45.87;37.13;;;;;;;10.74;87.44;100962.50;10341890;28;20874;-68
2022/01/03 02:53:25;;;;;;;40.83;34.60;;;;;;;10.70;87.31;100954.72;10339650;28;20233;-68
2022/01/03 02:58:27;;;;;;;31.27;28.27;;;;;;;10.69;87.79;100958.34;10333712;28;20276;-67
2022/01/03 03:03:28;;;;;;;34.90;31.23;;;;;;;10.43;88.16;100919.28;10337644;28;20244;-67
2022/01/03 03:08:32;;;;;;;32.03;28.87;;;;;;;10.69;88.46;100976.22;10336758;28;20201;-67
2022/01/03 03:13:33;;;;;;;29.37;26.63;;;;;;;10.70;88.57;100961.91;10335392;28;20261;-67
2022/01/03 03:18:35;;;;;;;26.43;24.17;;;;;;;10.69;89.38;100961.03;10340920;28;20332;-67
2022/01/03 03:23:39;;;;;;;24.37;22.50;;;;;;;10.70;89.25;100960.06;10342344;28;20215;-67
2022/01/03 03:28:40;;;;;;;13.63;12.67;;;;;;;10.67;89.88;100948.75;10333847;28;20209;-67
2022/01/03 03:33:42;;;;;;;9.17;8.47;;;;;;;10.70;90.17;100938.69;10336198;28;20244;-67
2022/01/03 03:38:45;;;;;;;6.53;6.07;;;;;;;10.69;89.79;100946.81;10340540;28;20228;-67
2022/01/03 03:43:47;;;;;;;2.83;2.53;;;;;;;10.68;90.18;100954.00;10335070;28;20221;-67
2022/01/03 03:48:48;;;;;;;0.63;0.63;;;;;;;10.68;90.06;100942.44;10337910;28;20758;-67
2022/01/03 03:53:53;;;;;;;2.57;2.03;;;;;;;10.71;89.88;100948.41;10337702;28;20608;-67
2022/01/03 03:58:55;;;;;;;2.97;2.27;;;;;;;10.66;90.55;100939.88;10334077;28;20247;-67
2022/01/03 04:03:56;;;;;;;2.57;2.07;;;;;;;10.69;90.61;100928.97;10337731;28;20367;-67
2022/01/03 04:09:00;;;;;;;2.43;1.90;;;;;;;10.73;91.10;100926.09;10341310;28;20227;-67
2022/01/03 04:14:01;;;;;;;1.73;1.57;;;;;;;10.71;90.93;100928.88;10336029;28;20228;-67
2022/01/03 04:19:04;;;;;;;5.23;3.57;;;;;;;10.71;91.49;100935.06;10335568;28;20756;-67
2022/01/03 04:24:08;;;;;;;0.23;0.23;;;;;;;10.71;91.51;100915.50;10337754;28;20216;-67
2022/01/03 04:29:10;;;;;;;1.83;1.50;;;;;;;10.74;91.70;100933.13;10336423;28;20219;-67
2022/01/03 04:34:13;;;;;;;0.40;0.40;;;;;;;10.75;91.38;100935.69;10336219;28;20243;-67
2022/01/03 04:39:16;;;;;;;246.07;168.30;;;;;;;10.75;91.28;100925.00;10339346;28;20209;-67
2022/01/03 04:44:18;;;;;;;67.77;45.47;;;;;;;10.74;92.07;100915.31;10346045;28;20208;-67
2022/01/03 04:49:19;;;;;;;50.17;39.10;;;;;;;10.75;91.49;100916.16;10344087;28;20621;-67
2022/01/03 04:54:22;;;;;;;37.47;32.57;;;;;;;10.75;91.63;100917.00;10340565;28;20766;-68
2022/01/03 04:59:24;;;;;;;35.90;31.90;;;;;;;10.75;91.44;100911.66;10337287;28;20323;-67
2022/01/03 05:04:25;;;;;;;34.73;31.03;;;;;;;10.74;91.69;100912.63;10342210;28;20255;-67
2022/01/03 05:09:28;;;;;;;33.33;29.83;;;;;;;10.73;91.23;100910.91;10343909;28;20255;-67
2022/01/03 05:14:30;;;;;;;31.90;28.80;;;;;;;10.75;91.36;100916.16;10341974;28;20275;-67
2022/01/03 05:19:31;;;;;;;33.00;29.73;;;;;;;10.74;91.10;100912.63;10343439;28;20233;-67
2022/01/03 05:24:35;;;;;;;29.27;26.70;;;;;;;10.78;91.46;100898.09;10348151;28;20271;-67
2022/01/03 05:29:36;;;;;;;28.07;25.67;;;;;;;10.79;91.57;100901.59;10342478;28;20738;-67
2022/01/03 05:34:38;;;;;;;13.77;12.77;;;;;;;10.79;91.43;100896.25;10343554;28;20323;-67
2022/01/03 05:39:41;;;;;;;11.20;10.40;;;;;;;10.64;91.17;100869.69;10345726;28;20206;-67
2022/01/03 05:44:43;;;;;;;5.77;5.37;;;;;;;10.81;91.61;100892.53;10340094;28;20220;-67
2022/01/03 05:49:44;;;;;;;3.77;3.33;;;;;;;10.63;91.29;100869.81;10342975;28;20223;-67
2022/01/03 05:54:47;;;;;;;1.57;1.47;;;;;;;10.73;91.16;100872.66;10343672;28;20235;-67
2022/01/03 05:59:49;;;;;;;1.23;1.13;;;;;;;10.84;90.67;100886.09;10342869;28;20214;-67
2022/01/03 06:04:57;;;;;;;2.97;2.33;;;;;;;10.75;90.65;100878.75;10340430;28;20342;-67
2022/01/03 06:10:00;;;;;;;0.50;0.50;;;;;;;10.86;90.67;100884.16;10338844;28;20213;-67
2022/01/03 06:15:02;;;;;;;1.47;1.33;;;;;;;10.75;91.03;100868.06;10335619;28;20251;-66
2022/01/03 06:20:04;;;;;;;0.67;0.67;;;;;;;10.86;91.08;100886.84;10341465;28;20213;-66
2022/01/03 06:25:09;;;;;;;1.83;1.53;;;;;;;10.88;90.45;100884.91;10344827;28;20616;-67
2022/01/03 06:30:12;;;;;;;1.90;1.43;;;;;;;10.72;90.67;100850.44;10341663;28;20216;-68
2022/01/03 06:35:13;;;;;;;2.13;1.63;;;;;;;10.88;90.51;100883.06;10339906;28;20235;-67
2022/01/03 06:40:16;;;;;;;1.53;1.13;;;;;;;10.87;90.87;100872.53;10342560;28;20216;-67
2022/01/03 06:45:18;;;;;;;2.07;1.67;;;;;;;10.88;90.45;100861.69;10337681;28;20298;-67
2022/01/03 06:50:22;;;;;;;1.77;1.30;;;;;;;10.88;90.37;100867.03;10341602;28;20223;-67
2022/01/03 06:55:26;;;;;;;0.07;0.07;;;;;;;10.85;90.03;100856.59;10347598;28;20234;-67
2022/01/03 07:00:28;;;;;;;2.47;2.00;;;;;;;10.83;89.73;100861.19;10340822;28;20260;-67
2022/01/03 07:05:29;;;;;;;1.80;1.60;;;;;;;10.82;90.18;100864.81;10339420;28;20212;-67
2022/01/03 07:10:32;;;;;;;1.92;1.50;;;;;;;10.81;90.44;100862.25;10344509;28;20205;-67
2022/01/03 07:20:54;;;;;;;1.88;1.45;;;;;;;10.81;90.14;100867.59;10339792;28;20203;-67
2022/01/03 07:25:57;;;;;;;1.60;1.37;;;;;;;10.81;90.19;100862.25;10338141;28;20284;-67
2022/01/03 07:30:58;;;;;;;1.50;1.17;;;;;;;10.76;90.19;100867.94;10339128;28;20227;-67
2022/01/03 07:36:00;;;;;;;2.53;2.10;;;;;;;10.80;90.61;100882.78;10335767;28;20239;-68
2022/01/03 07:41:04;;;;;;;1.30;1.05;;;;;;;10.36;90.31;100804.06;10337245;28;20675;-67
2022/01/03 07:46:06;;;;;;;2.17;1.77;;;;;;;10.77;90.41;100876.81;10337551;28;20679;-67
2022/01/03 07:51:07;;;;;;;1.83;1.48;;;;;;;10.75;90.65;100879.59;10330802;28;20250;-67
2022/01/03 07:56:11;;;;;;;1.50;1.35;;;;;;;10.78;90.28;100886.56;10328549;28;20256;-67
2022/01/03 08:01:13;;;;;;;2.17;1.73;;;;;;;10.77;90.22;100884.81;10328127;28;20351;-67
2022/01/03 08:06:14;;;;;;;2.05;1.77;;;;;;;10.77;90.49;100868.78;10329972;28;20220;-67
2022/01/03 08:16:47;;;;;;;45.93;24.93;;;;;;;10.67;88.99;100871.28;10566859;27;1280422;-67
2022/01/03 08:21:48;;;;;;;40.80;25.57;;;;;;;10.64;89.96;100868.81;10550353;27;20214;-67
2022/01/03 08:26:50;;;;;;;40.67;33.40;;;;;;;10.67;90.72;100873.94;10557702;27;20201;-67
2022/01/03 08:31:53;;;;;;;36.47;25.03;;;;;;;10.70;90.90;100887.94;10513163;27;20237;-67
2022/01/03 08:36:55;;;;;;;44.90;34.53;;;;;;;10.71;90.23;100894.13;10442501;28;20235;-67
2022/01/03 08:41:56;;;;;;;39.67;29.37;;;;;;;10.66;90.39;100885.59;10448505;28;20262;-67
2022/01/03 08:46:59;;;;;;;39.90;26.43;;;;;;;10.78;90.34;100906.09;10447918;28;20199;-67
2022/01/03 08:52:02;;;;;;;37.17;27.53;;;;;;;10.85;90.87;100896.69;10442636;28;20215;-67
2022/01/03 08:57:03;;;;;;;47.90;36.83;;;;;;;10.83;90.32;100892.41;10448526;28;20559;-66
2022/01/03 09:02:07;;;;;;;482.40;242.23;;;;;;;10.70;90.58;100863.06;10449077;28;20235;-67
2022/01/03 09:07:08;;;;;;;1145.10;665.73;;;;;;;10.87;90.32;100892.06;10446544;28;20207;-67
2022/01/03 09:12:10;;;;;;;1776.10;986.10;;;;;;;10.85;90.65;100887.78;10445415;28;20212;-67
2022/01/03 09:17:13;;;;;;;37.60;23.70;;;;;;;10.79;90.51;100865.03;10451385;28;20243;-67
2022/01/03 09:22:18;;;;;;;34.13;25.53;;;;;;;10.85;90.00;100872.63;10442774;28;20239;-67
2022/01/03 09:32:42;;;;;;;1162.20;745.33;;;;;;;10.84;89.38;100859.38;10421220;28;20223;-68
2022/01/03 09:37:43;;;;;;;1033.60;516.17;;;;;;;10.87;89.57;100876.03;10418432;28;20215;-67
2022/01/03 09:42:50;;;;;;;1352.37;645.80;;;;;;;10.89;89.56;100854.56;10415905;28;20204;-67
2022/01/03 09:47:54;;;;;;;1008.10;609.47;;;;;;;10.88;89.61;100855.50;10422215;28;20582;-67
2022/01/03 09:52:57;;;;;;;46.20;28.07;;;;;;;10.88;89.38;100859.03;10417460;28;20230;-67
2022/01/03 09:57:59;;;;;;;987.23;514.93;;;;;;;10.89;89.62;100858.09;10415793;28;20306;-67
2022/01/03 10:03:03;;;;;;;969.50;588.63;;;;;;;10.95;90.08;100854.09;10420452;28;20232;-67
2022/01/03 10:08:05;;;;;;;939.40;511.10;;;;;;;11.05;90.42;100862.28;10415673;28;20597;-67
2022/01/03 10:13:07;;;;;;;978.37;564.40;;;;;;;11.11;89.65;100864.50;10415178;28;20234;-67
2022/01/03 10:18:17;;;;;;;995.73;587.17;;;;;;;11.20;90.06;100873.69;10417245;28;20276;-68
2022/01/03 10:23:19;;;;;;;1044.67;625.27;;;;;;;11.24;89.97;100848.41;10415035;28;20230;-67
2022/01/03 10:28:23;;;;;;;1042.93;652.03;;;;;;;11.28;89.83;100842.75;10411343;28;20691;-67
2022/01/03 10:33:26;;;;;;;1008.80;614.70;;;;;;;11.29;88.82;100846.28;10412039;28;20242;-67
2022/01/03 10:38:32;;;;;;;1072.50;665.50;;;;;;;11.25;88.35;100810.88;10408627;28;20666;-68
2022/01/03 10:43:35;;;;;;;1111.90;716.50;;;;;;;11.33;89.29;100823.66;10414553;28;20818;-67
2022/01/03 10:48:38;;;;;;;1092.73;709.30;;;;;;;11.33;89.01;100814.81;10420355;28;20237;-67
2022/01/03 10:53:41;;;;;;;1114.73;758.07;;;;;;;11.37;88.13;100803.75;10415215;28;20224;-67
2022/01/03 10:58:42;;;;;;;1149.47;782.13;;;;;;;11.38;88.54;100793.94;10412295;28;20223;-67
2022/01/03 11:03:46;;;;;;;1156.37;812.20;;;;;;;11.44;88.26;100798.81;10413101;28;20277;-67
2022/01/03 11:14:09;;;;;;;1376.00;939.50;;;;;;;11.55;88.12;100787.28;10411124;28;20231;-67
2022/01/03 11:19:12;;;;;;;1345.77;917.57;;;;;;;11.58;87.95;100787.88;10413303;28;20235;-67
2022/01/03 11:24:15;;;;;;;1359.30;968.60;;;;;;;11.60;87.27;100771.72;10409787;28;20207;-67
2022/01/03 11:29:17;;;;;;;1364.63;918.97;;;;;;;11.58;88.56;100763.81;10410659;28;20675;-67
2022/01/03 11:34:24;;;;;;;1287.93;914.13;;;;;;;11.72;87.30;100765.44;10413960;28;20308;-67
2022/01/03 11:39:30;;;;;;;1312.30;939.97;;;;;;;11.74;86.96;100784.03;10409038;28;20266;-67
2022/01/03 11:44:33;;;;;;;1334.33;946.33;;;;;;;11.76;86.32;100758.84;10404749;28;20201;-68
2022/01/03 11:49:37;;;;;;;1300.70;935.83;;;;;;;11.72;86.67;100746.69;10410868;28;20211;-67
2022/01/03 11:54:39;;;;;;;1333.47;966.20;;;;;;;11.71;85.99;100738.78;10404048;28;20237;-67
2022/01/03 12:05:40;;;;;;;1220.93;878.20;;;;;;;11.67;85.42;100732.81;10411437;28;20994;-67
2022/01/03 12:10:46;;;;;;;1244.10;892.17;;;;;;;11.66;85.91;100731.13;10413512;28;20234;-67
2022/01/03 12:16:04;;;;;;;1193.67;848.10;;;;;;;11.67;86.23;100725.63;10410047;28;20289;-67
2022/01/03 12:21:07;;;;;;;1199.30;853.77;;;;;;;11.57;84.77;100716.63;10416464;28;20207;-67
2022/01/03 12:26:11;;;;;;;1311.37;924.03;;;;;;;11.65;84.94;100710.69;10415909;28;20216;-67
2022/01/03 12:31:13;;;;;;;1213.37;867.40;;;;;;;11.56;84.73;100687.31;10416280;28;20232;-68
2022/01/03 12:36:19;;;;;;;1261.07;894.47;;;;;;;11.65;85.65;100699.97;10414106;28;20742;-68
2022/01/03 12:41:38;;;;;;;1305.00;899.67;;;;;;;11.69;84.57;100690.72;10414880;28;20218;-68
2022/01/03 12:46:40;;;;;;;1225.13;880.37;;;;;;;11.71;84.98;100696.81;10419975;28;20211;-67
2022/01/03 12:51:43;;;;;;;1272.80;889.23;;;;;;;11.71;85.48;100680.75;10417094;28;20207;-68
2022/01/03 12:56:44;;;;;;;1284.17;902.77;;;;;;;11.76;84.18;100680.41;10414928;28;20256;-68
2022/01/03 13:01:46;;;;;;;1308.37;891.33;;;;;;;11.70;83.35;100663.03;10418787;28;20219;-68
2022/01/03 13:06:49;;;;;;;1225.30;862.60;;;;;;;11.67;83.82;100649.88;10422657;28;20257;-67
2022/01/03 13:11:51;;;;;;;1274.17;860.57;;;;;;;11.70;83.54;100646.97;10424725;28;20785;-67
2022/01/03 13:16:55;;;;;;;1237.23;874.37;;;;;;;11.69;83.04;100646.09;10414639;28;20235;-68
2022/01/03 13:22:00;;;;;;;1289.33;830.47;;;;;;;11.64;82.93;100636.72;10420199;28;20334;-68
2022/01/03 13:27:08;;;;;;;1274.13;671.87;;;;;;;11.69;82.34;100637.22;10423331;28;20294;-67
2022/01/03 13:32:13;;;;;;;1588.80;999.90;;;;;;;11.71;81.90;100635.28;10414490;28;20447;-68
2022/01/03 13:37:18;;;;;;;1367.40;972.77;;;;;;;11.67;81.57;100626.63;10417574;28;20733;-67
2022/01/03 13:42:28;;;;;;;1371.37;959.30;;;;;;;11.66;80.62;100624.13;10419564;28;20223;-67
2022/01/03 13:52:53;;;;;;;1366.63;949.40;;;;;;;11.63;81.52;100614.50;10425333;28;20212;-67
2022/01/03 13:58:02;;;;;;;1349.50;952.00;;;;;;;11.60;80.66;100600.50;10422227;28;20203;-68
2022/01/03 14:03:04;;;;;;;1326.17;955.97;;;;;;;11.52;81.70;100587.75;10417487;28;20243;-67
2022/01/03 14:08:07;;;;;;;1342.80;958.70;;;;;;;11.59;81.46;100596.16;10418978;28;20201;-67
2022/01/03 14:13:11;;;;;;;1336.23;965.93;;;;;;;11.57;81.40;100600.78;10423760;28;20209;-68
2022/01/03 14:18:13;;;;;;;1151.77;531.43;;;;;;;11.56;82.00;100589.19;10422630;28;20330;-67
2022/01/03 14:23:17;;;;;;;1267.70;772.17;;;;;;;11.52;81.70;100595.78;10424253;28;20211;-68
2022/01/03 14:28:27;;;;;;;1384.00;979.83;;;;;;;11.53;81.72;100605.50;10427422;28;20592;-68
2022/01/03 14:33:28;;;;;;;1476.33;991.03;;;;;;;11.33;81.44;100566.97;10420873;28;20300;-74
2022/01/03 14:38:33;;;;;;;1387.27;973.57;;;;;;;11.47;81.56;100590.78;10420770;28;20213;-74
2022/01/03 14:43:36;;;;;;;1336.53;948.90;;;;;;;11.32;81.27;100570.63;10422264;28;20208;-74
2022/01/03 14:48:38;;;;;;;1337.60;902.83;;;;;;;11.37;81.88;100571.09;10419388;28;20216;-74
2022/01/03 14:53:41;;;;;;;1999.90;999.90;;;;;;;11.38;81.21;100564.78;10412615;28;20228;-74
2022/01/03 14:58:43;;;;;;;1999.90;999.90;;;;;;;11.35;81.97;100582.88;10413726;28;20291;-74
2022/01/03 15:03:44;;;;;;;1999.90;999.90;;;;;;;11.35;82.46;100578.38;10415433;28;20721;-74
2022/01/03 15:08:47;;;;;;;1999.90;999.90;;;;;;;11.36;82.27;100571.22;10418922;28;20237;-74
2022/01/03 15:13:50;;;;;;;1999.90;999.90;;;;;;;11.25;82.16;100540.00;10415082;28;20234;-74
2022/01/03 15:18:52;;;;;;;1999.90;999.90;;;;;;;11.23;82.20;100540.13;10412934;28;20241;-74
2022/01/03 15:23:57;;;;;;;1999.90;999.90;;;;;;;11.33;81.87;100564.28;10418725;28;20216;-73
2022/01/03 15:28:58;;;;;;;1999.90;999.90;;;;;;;11.36;82.76;100555.16;10418083;28;20220;-73
2022/01/03 15:34:00;;;;;;;1999.90;999.90;;;;;;;11.32;82.75;100551.91;10413667;28;20605;-74
2022/01/03 15:39:03;;;;;;;1999.90;999.90;;;;;;;11.30;82.76;100553.81;10412463;28;20588;-74
2022/01/03 15:44:05;;;;;;;1999.90;999.90;;;;;;;11.27;82.51;100544.25;10413777;28;20209;-74
2022/01/03 15:49:08;;;;;;;1999.90;999.90;;;;;;;11.06;83.10;100519.22;10416155;28;20250;-74
2022/01/03 15:54:11;;;;;;;1999.90;999.90;;;;;;;11.12;82.79;100512.53;10414786;28;20968;-74
2022/01/03 15:59:15;;;;;;;1999.90;999.90;;;;;;;11.14;83.00;100538.16;10420342;28;20203;-74
2022/01/03 16:04:18;;;;;;;1999.90;999.90;;;;;;;10.97;83.69;100501.25;10419214;28;20235;-74
2022/01/03 16:09:21;;;;;;;1999.90;999.90;;;;;;;11.16;83.45;100517.50;10411677;28;20235;-74
2022/01/03 16:14:24;;;;;;;1999.90;999.90;;;;;;;11.13;84.15;100530.25;10417385;28;20228;-74
2022/01/03 16:19:26;;;;;;;1999.90;999.90;;;;;;;11.08;83.39;100511.94;10415434;28;20921;-74
2022/01/03 16:24:29;;;;;;;1999.90;999.90;;;;;;;11.05;84.75;100510.34;10410459;28;20255;-74
2022/01/03 16:29:31;;;;;;;1999.90;999.90;;;;;;;11.00;84.72;100492.97;10411335;28;20208;-74
2022/01/03 16:34:32;;;;;;;1999.90;999.90;;;;;;;10.84;84.86;100469.28;10413125;28;20219;-74
2022/01/03 16:39:35;;;;;;;1999.90;999.90;;;;;;;10.96;84.64;100483.50;10414017;28;20230;-74
2022/01/03 16:44:37;;;;;;;1999.90;999.90;;;;;;;10.94;84.02;100483.59;10418796;28;20234;-74
2022/01/03 16:49:39;;;;;;;1999.90;999.90;;;;;;;10.80;85.37;100455.31;10414693;28;20216;-74
2022/01/03 16:54:42;;;;;;;1999.90;999.90;;;;;;;10.94;85.38;100470.25;10415210;28;20228;-74
2022/01/03 16:59:44;;;;;;;208.80;136.53;;;;;;;10.83;85.53;100444.41;10418583;28;20339;-74
2022/01/03 17:04:46;;;;;;;1999.90;999.90;;;;;;;10.93;85.92;100457.03;10422845;28;20231;-74
2022/01/03 17:09:49;;;;;;;1999.90;999.90;;;;;;;10.94;86.30;100446.19;10417298;28;20223;-74
2022/01/03 17:14:51;;;;;;;1999.90;999.90;;;;;;;10.96;85.94;100441.56;10417195;28;20223;-74
2022/01/03 17:19:52;;;;;;;1999.90;999.90;;;;;;;10.96;86.09;100438.06;10421198;28;20239;-74
2022/01/03 17:24:55;;;;;;;1999.90;999.90;;;;;;;10.86;86.99;100411.22;10415444;28;20203;-74
2022/01/03 17:29:57;;;;;;;1999.90;999.90;;;;;;;10.91;86.84;100412.56;10415257;28;20671;-74
2022/01/03 17:34:59;;;;;;;1999.90;999.90;;;;;;;10.95;87.00;100426.53;10416443;28;20224;-74
2022/01/03 17:40:03;;;;;;;1365.03;953.53;;;;;;;10.98;87.30;100428.97;10414012;28;20688;-73
2022/01/03 17:45:06;;;;;;;1305.40;937.70;;;;;;;11.00;87.17;100415.47;10416362;28;20204;-74
2022/01/03 17:50:08;;;;;;;1270.13;902.50;;;;;;;10.99;87.19;100419.97;10419490;28;20204;-74
2022/01/03 17:55:12;;;;;;;1119.80;782.17;;;;;;;10.99;87.35;100413.78;10414342;28;20224;-74
2022/01/03 18:00:16;;;;;;;1137.80;778.80;;;;;;;10.91;87.30;100407.22;10415878;28;20226;-74
2022/01/03 18:05:18;;;;;;;1205.80;840.13;;;;;;;10.96;87.16;100409.50;10415494;28;20681;-73
2022/01/03 18:10:23;;;;;;;1255.27;866.93;;;;;;;10.93;87.25;100403.59;10417321;28;20223;-74
2022/01/03 18:15:25;;;;;;;1279.73;863.10;;;;;;;10.69;87.42;100348.47;10417959;28;20224;-74
2022/01/03 18:20:26;;;;;;;1999.90;999.90;;;;;;;10.90;87.36;100368.09;10419337;28;20232;-74
2022/01/03 18:25:31;;;;;;;1999.90;999.90;;;;;;;10.94;87.14;100355.34;10408914;28;20262;-74
2022/01/03 18:30:32;;;;;;;1999.90;999.90;;;;;;;10.69;87.56;100329.78;10419122;28;20688;-74
2022/01/03 18:35:34;;;;;;;1262.90;838.27;;;;;;;10.94;87.29;100357.19;10416470;28;20235;-73
2022/01/03 18:40:37;;;;;;;1239.93;843.97;;;;;;;10.97;87.86;100348.91;10416823;28;20753;-73
2022/01/03 18:45:39;;;;;;;1263.77;854.80;;;;;;;10.96;87.69;100347.22;10412183;28;20212;-74
2022/01/03 18:50:41;;;;;;;1241.53;845.03;;;;;;;10.90;87.41;100340.53;10416595;28;20207;-74
2022/01/03 18:55:44;;;;;;;1248.43;843.60;;;;;;;10.69;87.65;100297.72;10414694;28;20255;-74
2022/01/03 19:00:46;;;;;;;1264.47;854.63;;;;;;;10.88;88.06;100305.09;10416737;28;20221;-74
2022/01/03 19:05:48;;;;;;;1263.73;854.87;;;;;;;10.87;87.78;100317.59;10413338;28;20227;-73
2022/01/03 19:10:51;;;;;;;1999.90;999.90;;;;;;;10.87;87.78;100346.16;10421669;28;20231;-73
2022/01/03 19:15:53;;;;;;;1230.67;819.30;;;;;;;10.78;87.76;100325.53;10413256;28;20239;-73
2022/01/03 19:20:54;;;;;;;1156.33;766.90;;;;;;;10.85;88.29;100342.72;10420911;28;20211;-74
2022/01/03 19:25:57;;;;;;;1265.63;869.17;;;;;;;10.62;87.65;100291.19;10417467;28;20740;-74
2022/01/03 19:31:01;;;;;;;1120.47;750.97;;;;;;;10.86;88.22;100321.22;10415872;28;20228;-74
2022/01/03 19:41:25;;;;;;;1999.90;999.90;;;;;;;10.84;88.83;100298.31;10419996;28;20215;-74
2022/01/03 19:46:29;;;;;;;1999.90;999.90;;;;;;;10.88;88.96;100287.22;10415173;28;20610;-73
2022/01/03 19:51:32;;;;;;;1999.90;999.90;;;;;;;10.86;88.43;100278.50;10417612;28;20212;-74
2022/01/03 19:56:35;;;;;;;1999.90;999.90;;;;;;;10.71;88.37;100245.88;10415074;28;20567;-74
2022/01/03 20:01:37;;;;;;;1999.90;999.90;;;;;;;10.84;88.05;100259.06;10414886;28;20722;-74
2022/01/03 20:06:39;;;;;;;1999.90;999.90;;;;;;;10.68;88.49;100239.91;10414449;28;20622;-74
2022/01/03 20:11:45;;;;;;;1999.90;999.90;;;;;;;10.81;88.40;100251.31;10411987;28;20219;-74
2022/01/03 20:16:47;;;;;;;1999.90;999.90;;;;;;;10.81;88.89;100247.78;10415848;28;20231;-74
2022/01/03 20:21:51;;;;;;;1771.40;958.97;;;;;;;10.78;89.04;100230.19;10415980;28;20304;-74
2022/01/03 20:26:54;;;;;;;1999.90;999.90;;;;;;;10.60;89.47;100191.66;10420083;28;20209;-74
2022/01/03 20:31:56;;;;;;;1999.90;999.90;;;;;;;10.75;88.76;100224.25;10416298;28;20219;-74
2022/01/03 20:36:57;;;;;;;1999.90;999.90;;;;;;;10.79;88.57;100218.50;10413743;28;20232;-74
2022/01/03 20:42:01;;;;;;;1999.90;999.90;;;;;;;10.78;88.65;100211.50;10413283;28;20212;-74
2022/01/03 20:47:03;;;;;;;1999.90;999.90;;;;;;;10.64;88.85;100185.94;10416380;28;20201;-74
2022/01/03 20:52:05;;;;;;;1999.90;999.90;;;;;;;10.61;88.59;100180.84;10413228;28;20216;-74
2022/01/03 20:57:09;;;;;;;1999.90;999.90;;;;;;;10.81;88.77;100216.59;10411855;28;20236;-74
2022/01/03 21:02:13;;;;;;;1999.90;999.90;;;;;;;10.69;88.62;100199.75;10409198;28;20238;-74
2022/01/03 21:07:14;;;;;;;1999.90;999.90;;;;;;;10.83;89.37;100214.66;10399505;28;20211;-74
2022/01/03 21:12:17;;;;;;;1999.90;999.90;;;;;;;10.82;88.91;100199.56;10406132;28;20719;-74
2022/01/03 21:17:19;;;;;;;1999.90;999.90;;;;;;;10.78;89.26;100194.63;10408914;28;20775;-74
2022/01/03 21:22:21;;;;;;;1308.73;907.80;;;;;;;10.75;88.66;100187.69;10410275;28;20216;-75
2022/01/03 21:27:24;;;;;;;1323.70;925.07;;;;;;;10.73;88.88;100180.78;10415489;28;20203;-74
2022/01/03 21:32:26;;;;;;;1334.20;921.07;;;;;;;10.68;88.93;100166.00;10416231;28;20224;-74
2022/01/03 21:37:28;;;;;;;1999.90;999.90;;;;;;;10.72;89.11;100171.94;10419533;28;20280;-74
2022/01/03 21:42:31;;;;;;;1999.90;999.90;;;;;;;10.55;89.28;100138.63;10420502;28;20242;-74
2022/01/03 21:47:33;;;;;;;1999.90;999.90;;;;;;;10.50;89.10;100119.47;10419199;28;20757;-74
2022/01/03 21:52:35;;;;;;;1778.57;981.17;;;;;;;10.67;89.17;100155.44;10417096;28;20196;-73
2022/01/03 21:57:38;;;;;;;1999.90;999.90;;;;;;;10.64;88.93;100142.34;10415621;28;20233;-73
2022/01/03 22:02:40;;;;;;;1999.90;999.90;;;;;;;10.65;89.67;100136.88;10417293;28;20239;-74
2022/01/03 22:07:42;;;;;;;1999.90;999.90;;;;;;;10.71;89.85;100131.00;10413454;28;20220;-75
2022/01/03 22:12:45;;;;;;;1999.90;999.90;;;;;;;10.71;89.33;100124.81;10416475;28;20660;-74
2022/01/03 22:17:47;;;;;;;1999.90;999.90;;;;;;;10.56;89.42;100116.28;10414422;28;20266;-74
2022/01/03 22:22:48;;;;;;;1999.90;999.90;;;;;;;10.48;89.14;100092.03;10414567;28;20211;-74
2022/01/03 22:27:51;;;;;;;1284.77;912.87;;;;;;;10.50;89.43;100082.91;10417248;28;20269;-74
2022/01/03 22:32:53;;;;;;;1999.90;999.90;;;;;;;10.55;89.33;100082.56;10411587;28;20600;-74
2022/01/03 22:37:55;;;;;;;1999.90;999.90;;;;;;;10.65;89.51;100102.16;10409457;28;20230;-74
2022/01/03 22:42:58;;;;;;;1999.90;999.90;;;;;;;10.70;89.90;100104.47;10413989;28;20310;-74
2022/01/03 22:48:00;;;;;;;1999.90;999.90;;;;;;;10.61;89.57;100084.69;10414722;28;20220;-74
2022/01/03 22:53:02;;;;;;;1999.90;999.90;;;;;;;10.69;89.36;100097.41;10411974;28;20280;-74
2022/01/03 22:58:05;;;;;;;1999.90;999.90;;;;;;;10.63;89.47;100088.09;10417350;28;20659;-73